Time;durP1;ratioP1;P1;durP2;ratioP2;P2;SDS_P1;SDS_P2;PMS_P1;PMS_P2;Temp;Humidity;BMP_temperature;BMP_pressure;BME280_temperature;BME280_humidity;BME280_pressure;Samples;Min_cycle;Max_cycle;Signal;HPM_P1;HPM_P2
2021/08/23 00:00:37;;;;;;;7.47;5.80;;;16.10;89.60;;;;;;6189604;23;20408;-91
2021/08/23 00:03:04;;;;;;;11.60;6.70;;;16.10;89.90;;;;;;6216467;23;20439;-90
2021/08/23 00:05:33;;;;;;;8.52;6.40;;;16.10;90.00;;;;;;6190019;23;20443;-91
2021/08/23 00:07:59;;;;;;;6.85;5.45;;;16.10;90.00;;;;;;6189695;23;20000;-91
2021/08/23 00:10:24;;;;;;;8.10;5.90;;;16.00;90.10;;;;;;6216682;23;20004;-91
2021/08/23 00:12:50;;;;;;;9.10;6.25;;;16.00;90.20;;;;;;6216553;23;20001;-91
2021/08/23 00:15:16;;;;;;;8.02;5.93;;;16.00;90.20;;;;;;6216408;23;20054;-91
2021/08/23 00:17:42;;;;;;;7.05;5.50;;;16.00;90.30;;;;;;6189879;23;20404;-90
2021/08/23 00:20:16;;;;;;;11.43;7.18;;;16.00;90.30;;;;;;6190023;23;20012;-90
2021/08/23 00:22:51;;;;;;;11.32;6.40;;;16.00;90.40;;;;;;6215617;23;20004;-91
2021/08/23 00:25:18;;;;;;;10.40;7.00;;;15.90;90.40;;;;;;6215908;23;20001;-90
2021/08/23 00:27:45;;;;;;;11.18;7.20;;;15.90;90.50;;;;;;6189802;23;20012;-91
2021/08/23 00:30:13;;;;;;;10.60;7.40;;;15.90;90.50;;;;;;6215389;23;20040;-91
2021/08/23 00:32:40;;;;;;;11.07;7.78;;;15.90;90.60;;;;;;6217845;23;20072;-90
2021/08/23 00:35:06;;;;;;;11.82;7.22;;;15.90;90.60;;;;;;6218074;23;19993;-91
2021/08/23 00:37:32;;;;;;;11.23;7.63;;;15.90;90.70;;;;;;6191638;23;20027;-91
2021/08/23 00:39:58;;;;;;;10.05;7.75;;;15.80;90.60;;;;;;6218108;23;20047;-91
2021/08/23 00:42:23;;;;;;;9.50;6.93;;;15.80;90.60;;;;;;6218447;23;19997;-91
2021/08/23 00:44:49;;;;;;;10.38;7.05;;;15.80;90.70;;;;;;6217949;23;20008;-91
2021/08/23 00:47:15;;;;;;;9.50;6.63;;;15.80;90.70;;;;;;6218469;23;19996;-91
2021/08/23 00:49:41;;;;;;;9.95;6.78;;;15.80;90.80;;;;;;6217777;23;20012;-90
2021/08/23 00:52:08;;;;;;;8.88;6.07;;;15.80;90.80;;;;;;6191203;23;20005;-91
2021/08/23 00:54:34;;;;;;;12.02;7.55;;;15.80;90.90;;;;;;6218048;23;19997;-91
2021/08/23 00:57:01;;;;;;;10.63;6.90;;;15.80;90.90;;;;;;6191407;23;20004;-91
2021/08/23 00:59:29;;;;;;;8.57;6.32;;;15.80;91.00;;;;;;6191467;23;20019;-90
2021/08/23 01:02:12;;;;;;;9.38;7.05;;;15.80;91.00;;;;;;6191772;23;20007;-91
2021/08/23 01:04:52;;;;;;;8.47;5.73;;;15.80;91.00;;;;;;6218160;23;20000;-90
2021/08/23 01:07:21;;;;;;;7.18;5.45;;;15.80;91.00;;;;;;6218064;23;19993;-91
2021/08/23 01:09:53;;;;;;;10.30;6.18;;;15.70;91.00;;;;;;6217485;23;20009;-90
2021/08/23 01:12:19;;;;;;;10.38;6.78;;;15.70;91.10;;;;;;6192233;23;20326;-91
2021/08/23 01:14:45;;;;;;;9.25;6.90;;;15.70;91.10;;;;;;6190385;23;20031;-92
2021/08/23 01:17:10;;;;;;;9.30;7.22;;;15.70;91.20;;;;;;6217398;23;20004;-91
2021/08/23 01:19:40;;;;;;;12.15;8.25;;;15.70;91.20;;;;;;6218060;23;20482;-90
2021/08/23 01:22:06;;;;;;;12.50;7.63;;;15.60;91.20;;;;;;6217551;23;20001;-90
2021/08/23 01:24:36;;;;;;;10.90;7.97;;;15.60;91.30;;;;;;6190688;23;20053;-90
2021/08/23 01:27:06;;;;;;;11.70;8.18;;;15.60;91.30;;;;;;6217187;23;20007;-90
2021/08/23 01:29:58;;;;;;;8.50;6.85;;;15.60;91.40;;;;;;6191275;23;20005;-90
2021/08/23 01:32:27;;;;;;;8.80;6.75;;;15.60;91.40;;;;;;6217824;23;19997;-91
2021/08/23 01:34:54;;;;;;;8.65;6.40;;;15.50;91.40;;;;;;6217437;23;20399;-89
2021/08/23 01:37:21;;;;;;;10.05;6.72;;;15.50;91.40;;;;;;6217286;23;20007;-91
2021/08/23 01:39:47;;;;;;;10.05;6.28;;;15.50;91.40;;;;;;6217574;23;20084;-91
2021/08/23 01:42:14;;;;;;;8.13;6.75;;;15.50;91.40;;;;;;6190499;23;20446;-90
2021/08/23 01:44:42;;;;;;;9.35;6.00;;;15.50;91.40;;;;;;6217155;23;20001;-91
2021/08/23 01:47:08;;;;;;;10.25;6.82;;;15.40;91.50;;;;;;6185469;23;20005;-90
2021/08/23 01:49:34;;;;;;;10.10;7.53;;;15.40;91.50;;;;;;6184834;23;20066;-91
2021/08/23 01:51:59;;;;;;;8.75;6.95;;;15.40;91.50;;;;;;6190898;23;20004;-90
2021/08/23 01:54:25;;;;;;;10.82;6.85;;;15.30;91.50;;;;;;6190926;23;20015;-90
2021/08/23 01:56:51;;;;;;;10.10;6.90;;;15.30;91.60;;;;;;6190549;23;20032;-90
2021/08/23 01:59:16;;;;;;;10.25;6.70;;;15.30;91.70;;;;;;6190577;23;20433;-91
2021/08/23 02:01:43;;;;;;;12.38;7.28;;;15.30;91.60;;;;;;6190906;23;20008;-91
2021/08/23 02:04:09;;;;;;;11.02;6.60;;;15.30;91.60;;;;;;6190434;23;20131;-90
2021/08/23 02:06:34;;;;;;;9.98;7.88;;;15.20;91.50;;;;;;6190675;23;20056;-91
2021/08/23 02:09:00;;;;;;;10.43;8.00;;;15.20;91.50;;;;;;6217456;23;20020;-90
2021/08/23 02:11:26;;;;;;;11.00;7.43;;;15.20;91.50;;;;;;6217334;23;20112;-90
2021/08/23 02:13:52;;;;;;;10.05;7.22;;;15.10;91.50;;;;;;6217500;23;20020;-91
2021/08/23 02:16:18;;;;;;;10.90;7.20;;;15.10;91.50;;;;;;6217369;23;19992;-91
2021/08/23 02:18:44;;;;;;;9.88;7.70;;;15.00;91.50;;;;;;6190886;23;20081;-91
2021/08/23 02:21:10;;;;;;;10.23;6.78;;;15.00;91.60;;;;;;6220072;23;20475;-90
2021/08/23 02:23:35;;;;;;;11.55;6.47;;;15.00;91.60;;;;;;6221540;23;20013;-90
2021/08/23 02:26:02;;;;;;;16.17;5.90;;;14.90;91.70;;;;;;6223797;23;20003;-90
2021/08/23 02:28:28;;;;;;;10.20;6.13;;;14.90;91.80;;;;;;6226062;23;20011;-90
2021/08/23 02:30:53;;;;;;;10.55;6.22;;;14.90;91.80;;;;;;6196598;23;20079;-90
2021/08/23 02:33:19;;;;;;;7.50;5.22;;;14.80;91.90;;;;;;6223906;23;19996;-91
2021/08/23 02:35:45;;;;;;;7.57;5.20;;;14.70;92.00;;;;;;6221135;23;20369;-91
2021/08/23 02:38:11;;;;;;;9.25;5.22;;;14.70;92.00;;;;;;6190106;23;20009;-91
2021/08/23 02:40:36;;;;;;;6.57;4.95;;;14.70;92.00;;;;;;6216773;23;20451;-92
2021/08/23 02:43:02;;;;;;;8.38;5.65;;;14.70;92.10;;;;;;6216678;23;19997;-90
2021/08/23 02:45:28;;;;;;;7.10;5.38;;;14.70;92.10;;;;;;6216933;23;20001;-91
2021/08/23 02:47:54;;;;;;;8.18;5.35;;;14.70;92.20;;;;;;6216823;23;20019;-91
2021/08/23 02:50:19;;;;;;;9.18;5.63;;;14.60;92.20;;;;;;6216507;23;20054;-90
2021/08/23 02:52:46;;;;;;;8.80;4.90;;;14.60;92.20;;;;;;6216822;23;20317;-90
2021/08/23 02:55:11;;;;;;;8.88;5.72;;;14.60;92.30;;;;;;6216364;23;20000;-90
2021/08/23 02:57:37;;;;;;;8.00;5.68;;;14.60;92.30;;;;;;6216409;23;20459;-90
2021/08/23 03:00:06;;;;;;;7.88;5.63;;;14.60;92.30;;;;;;6190162;23;20009;-91
2021/08/23 03:02:32;;;;;;;7.57;5.50;;;14.60;92.40;;;;;;6190566;23;20012;-91
2021/08/23 03:04:58;;;;;;;7.88;5.13;;;14.60;92.50;;;;;;6190082;23;20384;-90
2021/08/23 03:07:23;;;;;;;8.60;5.53;;;14.50;92.50;;;;;;6189785;23;20004;-91
2021/08/23 03:09:49;;;;;;;8.27;5.43;;;14.50;92.50;;;;;;6216291;23;20013;-91
2021/08/23 03:12:15;;;;;;;8.20;6.22;;;14.60;92.60;;;;;;6216453;23;19997;-91
2021/08/23 03:14:41;;;;;;;8.43;5.22;;;14.50;92.60;;;;;;6217052;23;20006;-91
2021/08/23 03:17:07;;;;;;;7.57;5.55;;;14.50;92.60;;;;;;6216102;23;20432;-90
2021/08/23 03:19:33;;;;;;;7.65;5.90;;;14.60;92.60;;;;;;6216969;23;20051;-90
2021/08/23 03:21:58;;;;;;;10.82;6.22;;;14.60;92.70;;;;;;6216614;23;20461;-90
2021/08/23 03:24:24;;;;;;;8.48;6.03;;;14.50;92.70;;;;;;6185149;23;20074;-90
2021/08/23 03:26:50;;;;;;;10.00;6.88;;;14.60;92.80;;;;;;6187138;23;20001;-90
2021/08/23 03:29:16;;;;;;;9.27;6.35;;;14.60;92.80;;;;;;6189754;23;20024;-90
2021/08/23 03:31:42;;;;;;;9.77;7.30;;;14.60;92.80;;;;;;6190048;23;20084;-90
2021/08/23 03:34:12;;;;;;;12.35;7.80;;;14.70;92.90;;;;;;6190212;23;20012;-91
2021/08/23 03:36:43;;;;;;;10.98;6.57;;;14.70;92.90;;;;;;6216614;23;19997;-90
2021/08/23 03:39:10;;;;;;;8.88;6.32;;;14.70;92.90;;;;;;6189714;23;20129;-90
2021/08/23 03:41:36;;;;;;;11.18;7.00;;;14.70;92.90;;;;;;6217272;23;20000;-90
2021/08/23 03:44:02;;;;;;;11.95;7.65;;;14.80;92.90;;;;;;6216140;23;20412;-90
2021/08/23 03:46:30;;;;;;;13.23;7.00;;;14.80;93.20;;;;;;6189838;23;20008;-91
2021/08/23 03:48:56;;;;;;;11.65;7.88;;;14.80;92.80;;;;;;6215834;23;20332;-90
2021/08/23 03:51:21;;;;;;;13.10;8.02;;;14.90;92.80;;;;;;6189666;23;20005;-90
2021/08/23 03:53:47;;;;;;;15.00;8.18;;;14.90;92.80;;;;;;6216166;23;20028;-91
2021/08/23 03:56:12;;;;;;;12.82;8.02;;;15.00;92.80;;;;;;6216496;23;20043;-91
2021/08/23 03:58:38;;;;;;;13.02;8.52;;;15.00;92.80;;;;;;6216088;23;20404;-91
2021/08/23 04:01:04;;;;;;;11.23;7.10;;;15.00;92.70;;;;;;6215846;23;20001;-90
2021/08/23 04:03:33;;;;;;;9.93;7.63;;;15.10;92.60;;;;;;6189643;23;20008;-90
2021/08/23 04:05:58;;;;;;;9.88;7.10;;;15.10;92.60;;;;;;6188979;23;20007;-91
2021/08/23 04:08:24;;;;;;;12.00;7.57;;;15.20;92.50;;;;;;6189720;23;20103;-90
2021/08/23 04:10:50;;;;;;;10.05;7.15;;;15.30;92.50;;;;;;6215967;23;20001;-91
2021/08/23 04:13:15;;;;;;;10.73;6.70;;;15.40;92.40;;;;;;6189851;23;20004;-90
2021/08/23 04:15:48;;;;;;;9.73;6.18;;;15.40;92.30;;;;;;6216084;23;20003;-90
2021/08/23 04:18:14;;;;;;;9.02;6.55;;;15.50;92.20;;;;;;6216277;23;20080;-90
2021/08/23 04:20:40;;;;;;;8.95;6.75;;;15.60;92.10;;;;;;6189812;23;20001;-90
2021/08/23 04:23:06;;;;;;;10.38;6.93;;;15.70;91.90;;;;;;6189301;23;20044;-90
2021/08/23 04:25:37;;;;;;;9.50;7.22;;;15.80;91.80;;;;;;6217859;23;20009;-91
2021/08/23 04:28:03;;;;;;;9.98;6.80;;;15.90;91.70;;;;;;6216003;23;20059;-91
2021/08/23 04:30:29;;;;;;;8.95;6.53;;;16.00;91.60;;;;;;6189131;23;20432;-91
2021/08/23 04:32:55;;;;;;;11.88;7.50;;;16.20;91.50;;;;;;6189815;23;20016;-88
2021/08/23 04:35:20;;;;;;;9.07;6.18;;;16.30;91.30;;;;;;6215969;23;20001;-89
2021/08/23 04:37:46;;;;;;;9.20;6.70;;;16.40;91.10;;;;;;6216521;23;20001;-88
2021/08/23 04:40:12;;;;;;;9.60;7.28;;;16.50;90.90;;;;;;6189317;23;20008;-89
2021/08/23 04:42:38;;;;;;;12.07;7.10;;;16.60;90.80;;;;;;6215880;23;20064;-89
2021/08/23 04:45:04;;;;;;;8.00;6.75;;;16.70;90.60;;;;;;6215753;23;20035;-91
2021/08/23 04:47:29;;;;;;;10.05;6.90;;;16.90;90.40;;;;;;6189433;23;20309;-91
2021/08/23 04:49:55;;;;;;;10.32;7.88;;;17.00;90.20;;;;;;6189341;23;20022;-89
2021/08/23 04:52:22;;;;;;;8.60;7.00;;;17.10;89.90;;;;;;6216416;23;19993;-89
2021/08/23 04:54:48;;;;;;;10.90;7.25;;;17.20;89.10;;;;;;6188812;23;20008;-89
2021/08/23 04:57:16;;;;;;;6.93;5.68;;;17.40;88.60;;;;;;6188770;23;20016;-89
2021/08/23 04:59:41;;;;;;;9.07;7.13;;;17.50;88.00;;;;;;6189030;23;20016;-89
2021/08/23 05:02:07;;;;;;;8.18;6.63;;;17.60;87.40;;;;;;6215325;23;20000;-91
2021/08/23 05:04:33;;;;;;;9.30;6.68;;;17.70;86.90;;;;;;6215359;23;20032;-89
2021/08/23 05:06:58;;;;;;;8.65;6.47;;;17.90;86.60;;;;;;6215724;23;20004;-89
2021/08/23 05:09:24;;;;;;;8.55;6.88;;;18.00;86.20;;;;;;6215145;23;20017;-91
2021/08/23 05:11:50;;;;;;;7.35;6.30;;;18.20;85.80;;;;;;6215492;23;20004;-89
2021/08/23 05:14:15;;;;;;;10.98;6.78;;;18.40;85.50;;;;;;6215978;23;20422;-89
2021/08/23 05:16:41;;;;;;;10.80;6.30;;;18.50;85.10;;;;;;6215937;23;20004;-89
2021/08/23 05:19:07;;;;;;;10.30;6.57;;;18.60;84.60;;;;;;6190346;23;20001;-90
2021/08/23 05:21:33;;;;;;;8.98;6.50;;;18.80;84.20;;;;;;6217370;23;19996;-89
2021/08/23 05:23:59;;;;;;;8.82;6.78;;;19.00;83.60;;;;;;6190021;23;20451;-88
2021/08/23 05:26:24;;;;;;;7.43;5.93;;;19.10;83.10;;;;;;6190367;23;20439;-89
2021/08/23 05:28:50;;;;;;;7.38;5.38;;;19.30;82.70;;;;;;6190582;23;20059;-89
2021/08/23 05:31:16;;;;;;;8.02;5.70;;;19.40;82.20;;;;;;6190354;23;20009;-89
2021/08/23 05:33:41;;;;;;;9.75;5.78;;;19.60;81.80;;;;;;6217778;23;20007;-89
2021/08/23 05:36:07;;;;;;;6.57;5.22;;;19.70;81.20;;;;;;6217742;23;20023;-89
2021/08/23 05:38:33;;;;;;;7.20;5.20;;;19.90;80.80;;;;;;6190405;23;20055;-90
2021/08/23 05:40:58;;;;;;;7.53;4.97;;;20.00;80.30;;;;;;6216909;23;20034;-90
2021/08/23 05:43:25;;;;;;;5.93;4.72;;;20.20;79.80;;;;;;6217370;23;20075;-90
2021/08/23 05:45:51;;;;;;;5.40;3.97;;;20.40;79.20;;;;;;6190419;23;20012;-90
2021/08/23 05:48:16;;;;;;;5.88;4.40;;;20.50;78.40;;;;;;6216508;23;20001;-90
2021/08/23 05:50:42;;;;;;;6.63;4.10;;;20.60;77.80;;;;;;6192498;23;20361;-89
2021/08/23 05:53:08;;;;;;;4.63;3.60;;;20.80;77.40;;;;;;6193109;23;20054;-89
2021/08/23 05:55:34;;;;;;;5.43;3.35;;;20.90;76.80;;;;;;6217296;23;20001;-89
2021/08/23 05:57:59;;;;;;;5.65;3.63;;;21.00;76.10;;;;;;6217202;23;20003;-89
2021/08/23 06:00:25;;;;;;;5.80;4.00;;;21.20;75.70;;;;;;6190470;23;20079;-89
2021/08/23 06:02:51;;;;;;;6.05;4.68;;;21.30;75.30;;;;;;6217170;23;19997;-89
2021/08/23 06:05:16;;;;;;;5.20;4.20;;;21.40;74.90;;;;;;6216756;23;19992;-89
2021/08/23 06:07:42;;;;;;;8.00;5.20;;;21.60;74.70;;;;;;6216847;23;20001;-89
2021/08/23 06:10:12;;;;;;;8.20;5.38;;;21.70;74.20;;;;;;6190322;23;20055;-89
2021/08/23 06:12:38;;;;;;;6.75;4.90;;;21.90;73.60;;;;;;6190173;23;20035;-89
2021/08/23 06:15:04;;;;;;;13.18;4.78;;;22.00;73.00;;;;;;6217111;23;19993;-90
2021/08/23 06:17:29;;;;;;;8.23;4.43;;;22.10;72.40;;;;;;6217340;23;20001;-90
2021/08/23 06:19:55;;;;;;;8.73;4.72;;;22.30;71.70;;;;;;6190103;23;20038;-90
2021/08/23 06:22:21;;;;;;;5.63;4.30;;;22.40;71.30;;;;;;6217298;23;20047;-90
2021/08/23 06:24:52;;;;;;;6.20;4.53;;;22.50;71.00;;;;;;6217570;23;20020;-90
2021/08/23 06:27:18;;;;;;;8.10;5.43;;;22.70;70.80;;;;;;6217266;23;20003;-90
2021/08/23 06:29:44;;;;;;;7.43;4.55;;;22.80;70.20;;;;;;6216436;23;20008;-90
2021/08/23 06:32:10;;;;;;;8.13;4.82;;;22.90;69.70;;;;;;6216358;23;20307;-90
2021/08/23 06:34:35;;;;;;;7.78;4.88;;;23.00;68.90;;;;;;6217163;23;20416;-90
2021/08/23 06:37:01;;;;;;;7.75;4.65;;;23.20;68.50;;;;;;6216406;23;20001;-90
2021/08/23 06:39:27;;;;;;;5.10;3.42;;;23.30;68.10;;;;;;6216820;23;20380;-90
2021/08/23 06:41:52;;;;;;;5.53;4.10;;;23.40;67.70;;;;;;6216404;23;19992;-91
2021/08/23 06:44:19;;;;;;;5.68;3.78;;;23.60;67.30;;;;;;6217250;23;19996;-90
2021/08/23 06:46:45;;;;;;;6.88;4.75;;;23.60;66.40;;;;;;6216861;23;20001;-90
2021/08/23 06:49:11;;;;;;;6.60;4.13;;;23.80;66.10;;;;;;6190106;23;20012;-90
2021/08/23 06:51:36;;;;;;;4.28;3.03;;;23.90;65.70;;;;;;6216996;23;20000;-89
2021/08/23 06:54:02;;;;;;;5.45;3.85;;;24.00;64.40;;;;;;6191065;23;20000;-89
2021/08/23 06:56:28;;;;;;;3.92;3.20;;;24.10;63.50;;;;;;6217939;23;19997;-92
2021/08/23 06:58:55;;;;;;;5.63;3.85;;;24.10;62.70;;;;;;6190652;23;20013;-90
2021/08/23 07:01:23;;;;;;;7.15;4.22;;;24.20;61.90;;;;;;6190324;23;20352;-90
2021/08/23 07:03:49;;;;;;;8.63;5.15;;;24.20;61.80;;;;;;6217108;23;20028;-90
2021/08/23 07:06:14;;;;;;;8.32;4.75;;;24.20;61.50;;;;;;6190279;23;20003;-90
2021/08/23 07:08:40;;;;;;;9.38;5.78;;;24.30;61.70;;;;;;6190286;23;20443;-90
2021/08/23 07:11:06;;;;;;;6.05;4.25;;;24.40;61.30;;;;;;6216632;23;20000;-92
2021/08/23 07:13:31;;;;;;;5.68;3.83;;;24.50;61.10;;;;;;6189938;23;20001;-90
2021/08/23 07:15:58;;;;;;;6.35;4.47;;;24.50;60.90;;;;;;6218572;23;20000;-89
2021/08/23 07:18:23;;;;;;;5.78;3.85;;;24.70;60.80;;;;;;6221968;23;20316;-89
2021/08/23 07:20:53;;;;;;;5.20;4.13;;;24.70;60.50;;;;;;6216466;23;19997;-89
2021/08/23 07:23:19;;;;;;;8.05;5.00;;;24.80;60.20;;;;;;6215730;23;20016;-89
2021/08/23 07:25:45;;;;;;;17.17;9.00;;;25.00;59.90;;;;;;6217310;23;20055;-89
2021/08/23 07:28:13;;;;;;;16.15;8.85;;;25.00;58.90;;;;;;6223347;23;19997;-89
2021/08/23 07:30:39;;;;;;;11.57;7.80;;;25.10;59.00;;;;;;6221376;23;20003;-89
2021/08/23 07:33:04;;;;;;;16.35;10.85;;;25.20;58.90;;;;;;6190546;23;20001;-90
2021/08/23 07:35:30;;;;;;;21.08;10.60;;;25.20;58.10;;;;;;6195483;23;20001;-89
2021/08/23 07:37:56;;;;;;;17.77;10.95;;;25.20;57.70;;;;;;6197282;23;20054;-90
2021/08/23 07:40:21;;;;;;;18.98;11.25;;;25.20;57.60;;;;;;6195843;23;20005;-90
2021/08/23 07:42:47;;;;;;;16.73;9.05;;;25.20;57.50;;;;;;6197116;23;20032;-90
2021/08/23 07:45:14;;;;;;;18.98;9.95;;;25.20;57.60;;;;;;6222634;23;20024;-90
2021/08/23 07:47:42;;;;;;;18.80;10.00;;;25.30;57.50;;;;;;6219177;23;19996;-90
2021/08/23 07:50:08;;;;;;;10.80;7.20;;;25.30;57.20;;;;;;6223211;23;20032;-90
2021/08/23 07:52:34;;;;;;;11.18;5.47;;;25.40;57.10;;;;;;6223285;23;20015;-89
2021/08/23 07:55:00;;;;;;;10.30;5.25;;;25.50;57.10;;;;;;6223324;23;19996;-90
2021/08/23 07:57:25;;;;;;;10.70;6.50;;;25.60;57.10;;;;;;6196686;23;20056;-89
2021/08/23 07:59:51;;;;;;;12.85;8.07;;;25.70;56.70;;;;;;6197084;23;20371;-89
2021/08/23 08:02:17;;;;;;;13.30;7.85;;;25.70;55.40;;;;;;6223257;23;20113;-89
2021/08/23 08:04:42;;;;;;;15.13;7.68;;;25.80;55.30;;;;;;6224617;23;19996;-89
2021/08/23 08:07:08;;;;;;;11.82;6.22;;;25.80;55.20;;;;;;6197005;23;20008;-90
2021/08/23 08:09:34;;;;;;;19.27;8.50;;;25.80;54.90;;;;;;6197046;23;20432;-89
2021/08/23 08:11:59;;;;;;;12.45;6.22;;;25.90;54.40;;;;;;6197664;23;20005;-90
2021/08/23 08:14:25;;;;;;;16.13;8.15;;;25.90;54.20;;;;;;6197134;23;20011;-90
2021/08/23 08:16:51;;;;;;;9.50;5.93;;;25.90;53.10;;;;;;6197073;23;20005;-90
2021/08/23 08:19:16;;;;;;;9.43;5.38;;;25.90;52.70;;;;;;6222932;23;20005;-91
2021/08/23 08:21:42;;;;;;;9.48;5.50;;;25.90;52.80;;;;;;6197669;23;20033;-90
2021/08/23 08:24:08;;;;;;;8.88;4.70;;;25.90;52.50;;;;;;6221860;23;20019;-90
2021/08/23 08:26:33;;;;;;;7.82;4.28;;;26.00;52.30;;;;;;6222977;23;19997;-90
2021/08/23 08:28:59;;;;;;;5.88;3.35;;;26.00;52.30;;;;;;6195737;23;20013;-90
2021/08/23 08:31:25;;;;;;;3.47;2.63;;;26.10;52.30;;;;;;6220506;23;20011;-90
2021/08/23 08:33:51;;;;;;;4.35;3.03;;;26.20;52.20;;;;;;6194461;23;20031;-90
2021/08/23 08:36:17;;;;;;;5.57;3.08;;;26.30;52.10;;;;;;6222556;23;20123;-90
2021/08/23 08:38:43;;;;;;;4.60;2.65;;;26.30;52.10;;;;;;6224736;23;20000;-90
2021/08/23 08:41:09;;;;;;;4.95;2.90;;;26.40;52.10;;;;;;6231321;23;20043;-89
2021/08/23 08:43:35;;;;;;;3.50;2.80;;;26.40;51.90;;;;;;6205161;23;20440;-90
2021/08/23 08:46:01;;;;;;;3.42;2.58;;;26.50;51.80;;;;;;6229653;23;19996;-90
2021/08/23 08:48:29;;;;;;;3.70;2.80;;;26.50;52.10;;;;;;6197293;23;20013;-90
2021/08/23 08:50:55;;;;;;;4.50;2.97;;;26.60;52.30;;;;;;6196064;23;20028;-90
2021/08/23 08:53:21;;;;;;;4.35;2.78;;;26.60;52.00;;;;;;6195947;23;20004;-90
2021/08/23 08:55:47;;;;;;;5.68;2.80;;;26.70;52.10;;;;;;6191923;23;20011;-90
2021/08/23 08:58:13;;;;;;;3.13;2.83;;;26.80;52.10;;;;;;6191107;23;20005;-90
2021/08/23 09:00:40;;;;;;;2.72;2.50;;;26.80;51.90;;;;;;6218046;23;20415;-90
2021/08/23 09:03:07;;;;;;;3.50;2.60;;;26.80;52.00;;;;;;6191257;23;20327;-90
2021/08/23 09:05:41;;;;;;;3.83;2.72;;;26.90;52.00;;;;;;6218253;23;19997;-90
2021/08/23 09:08:07;;;;;;;4.05;2.70;;;26.90;51.90;;;;;;6191179;23;20091;-91
2021/08/23 09:10:41;;;;;;;4.05;3.63;;;26.90;51.90;;;;;;6217717;23;20072;-91
2021/08/23 09:13:10;;;;;;;3.50;3.20;;;26.90;51.70;;;;;;6217732;23;20058;-90
2021/08/23 09:15:37;;;;;;;3.75;3.00;;;26.90;51.50;;;;;;6191641;23;20008;-90
2021/08/23 09:18:08;;;;;;;3.67;3.15;;;26.80;51.50;;;;;;6218020;23;19996;-90
2021/08/23 09:20:35;;;;;;;3.90;2.90;;;26.80;50.90;;;;;;6217585;23;19994;-90
2021/08/23 09:23:08;;;;;;;3.53;3.00;;;26.80;51.70;;;;;;6190746;23;20029;-90
2021/08/23 09:25:34;;;;;;;7.53;2.85;;;26.80;51.70;;;;;;6191068;23;20001;-90
2021/08/23 09:28:04;;;;;;;3.80;2.83;;;26.90;51.80;;;;;;6191001;23;20320;-90
2021/08/23 09:30:30;;;;;;;2.80;2.42;;;27.00;51.70;;;;;;6190783;23;20017;-90
2021/08/23 09:32:58;;;;;;;4.95;3.53;;;27.10;51.70;;;;;;6217782;23;20072;-90
2021/08/23 09:35:29;;;;;;;4.65;3.63;;;27.10;51.10;;;;;;6216817;23;20043;-90
2021/08/23 09:37:54;;;;;;;4.00;3.05;;;27.00;51.20;;;;;;6191419;23;20024;-90
2021/08/23 09:40:28;;;;;;;4.28;2.70;;;27.00;50.90;;;;;;6217680;23;20000;-90
2021/08/23 09:42:58;;;;;;;3.15;2.80;;;27.00;50.90;;;;;;6191106;23;20035;-90
2021/08/23 09:45:24;;;;;;;2.92;2.58;;;27.10;50.70;;;;;;6190478;23;20011;-90
2021/08/23 09:48:02;;;;;;;3.47;2.85;;;27.00;50.50;;;;;;6217856;23;20315;-90
2021/08/23 09:50:42;;;;;;;3.25;2.80;;;27.00;50.50;;;;;;6190620;23;20332;-90
2021/08/23 09:53:12;;;;;;;3.03;2.72;;;26.90;50.20;;;;;;6190768;23;20005;-89
2021/08/23 09:55:43;;;;;;;3.30;2.40;;;26.90;50.40;;;;;;6190632;23;20389;-90
2021/08/23 09:58:10;;;;;;;2.70;2.50;;;26.80;49.90;;;;;;6190868;23;20001;-89
2021/08/23 10:00:38;;;;;;;3.85;3.00;;;26.80;50.00;;;;;;6190708;23;20004;-89
2021/08/23 10:03:13;;;;;;;2.47;2.28;;;26.80;49.70;;;;;;6217515;23;20011;-89
2021/08/23 10:05:49;;;;;;;2.28;2.03;;;26.80;49.60;;;;;;6217417;23;20000;-89
2021/08/23 10:08:24;;;;;;;3.40;2.40;;;26.90;49.50;;;;;;6217411;23;20004;-89
2021/08/23 10:10:51;;;;;;;2.63;2.15;;;27.00;49.10;;;;;;6217472;23;20028;-90
2021/08/23 10:13:17;;;;;;;2.72;2.33;;;27.00;49.00;;;;;;6190766;23;20009;-90
2021/08/23 10:15:43;;;;;;;2.05;1.90;;;26.90;48.60;;;;;;6217038;23;20001;-90
2021/08/23 10:18:09;;;;;;;1.75;1.65;;;26.80;48.70;;;;;;6190192;23;20428;-89
2021/08/23 10:20:36;;;;;;;2.42;1.88;;;26.70;48.80;;;;;;6190255;23;20009;-90
2021/08/23 10:23:03;;;;;;;2.72;2.45;;;26.60;48.60;;;;;;6190408;23;20020;-89
2021/08/23 10:25:30;;;;;;;3.90;1.98;;;26.50;48.60;;;;;;6217012;23;19997;-92
2021/08/23 10:28:06;;;;;;;2.45;2.15;;;26.50;48.70;;;;;;6189913;23;20013;-89
2021/08/23 10:30:32;;;;;;;4.13;1.75;;;26.40;48.60;;;;;;6189790;23;20074;-90
2021/08/23 10:33:13;;;;;;;1.90;1.70;;;26.30;48.80;;;;;;6190160;23;20005;-89
2021/08/23 10:35:55;;;;;;;2.28;1.60;;;26.30;48.20;;;;;;6190359;23;20333;-89
2021/08/23 10:38:23;;;;;;;3.23;2.13;;;26.20;48.80;;;;;;6217614;23;20035;-89
2021/08/23 10:41:07;;;;;;;2.17;1.95;;;26.20;49.00;;;;;;6190166;23;19997;-92
2021/08/23 10:43:42;;;;;;;2.28;1.90;;;26.20;48.90;;;;;;6190197;23;20001;-89
2021/08/23 10:46:29;;;;;;;1.77;1.67;;;26.10;49.00;;;;;;6190253;23;20007;-90
2021/08/23 10:48:58;;;;;;;2.55;2.17;;;26.10;48.90;;;;;;6190126;23;20016;-91
2021/08/23 10:51:33;;;;;;;2.42;1.90;;;26.10;49.10;;;;;;6216980;23;20454;-92
2021/08/23 10:53:59;;;;;;;2.20;2.00;;;26.10;49.80;;;;;;6216593;23;20449;-89
2021/08/23 10:56:36;;;;;;;3.10;2.03;;;26.10;49.30;;;;;;6190203;23;20015;-89
2021/08/23 10:59:12;;;;;;;2.42;2.05;;;26.10;49.20;;;;;;6190036;23;20091;-90
2021/08/23 11:01:39;;;;;;;2.05;1.85;;;26.10;49.00;;;;;;6216875;23;20001;-89
2021/08/23 11:04:06;;;;;;;2.45;2.13;;;26.10;49.40;;;;;;6216528;23;20001;-90
2021/08/23 11:06:32;;;;;;;3.05;2.13;;;26.10;49.40;;;;;;6216529;23;20320;-90
2021/08/23 11:09:33;;;;;;;4.05;2.38;;;26.10;49.30;;;;;;6216502;23;20047;-90
2021/08/23 11:12:11;;;;;;;3.42;2.00;;;26.10;49.20;;;;;;6216047;23;19993;-90
2021/08/23 11:14:43;;;;;;;2.40;1.83;;;26.10;49.20;;;;;;6189340;23;20004;-90
2021/08/23 11:17:09;;;;;;;2.10;1.90;;;26.10;49.20;;;;;;6190220;23;20424;-90
2021/08/23 11:19:38;;;;;;;2.20;2.00;;;26.20;49.10;;;;;;6216376;23;20015;-89
2021/08/23 11:22:03;;;;;;;3.15;2.25;;;26.30;49.00;;;;;;6189719;23;20009;-90
2021/08/23 11:24:31;;;;;;;2.05;1.85;;;26.40;49.00;;;;;;6185971;23;20108;-90
2021/08/23 11:27:02;;;;;;;2.10;1.90;;;26.60;48.80;;;;;;6216035;23;20008;-89
2021/08/23 11:29:39;;;;;;;1.90;1.73;;;26.70;48.50;;;;;;6190483;23;20008;-90
2021/08/23 11:32:07;;;;;;;3.47;2.17;;;26.80;48.20;;;;;;6189525;23;20071;-90
2021/08/23 11:34:34;;;;;;;2.13;1.80;;;26.90;47.80;;;;;;6189525;23;20035;-90
2021/08/23 11:37:02;;;;;;;2.45;1.77;;;27.00;47.50;;;;;;6189843;23;20030;-90
2021/08/23 11:39:30;;;;;;;3.30;1.90;;;27.00;47.30;;;;;;6189631;23;20365;-90
2021/08/23 11:42:04;;;;;;;1.83;1.67;;;27.00;47.00;;;;;;6189586;23;20008;-90
2021/08/23 11:44:30;;;;;;;2.15;1.70;;;27.10;47.00;;;;;;6189230;23;20055;-90
2021/08/23 11:46:58;;;;;;;2.13;1.88;;;27.10;46.80;;;;;;6189350;23;20012;-90
2021/08/23 11:49:35;;;;;;;1.60;1.50;;;27.20;46.60;;;;;;6189523;23;20012;-90
2021/08/23 11:52:15;;;;;;;3.10;2.13;;;27.20;46.30;;;;;;6215946;23;20428;-90
2021/08/23 11:54:49;;;;;;;2.05;1.90;;;27.30;46.00;;;;;;6189256;23;20003;-90
2021/08/23 11:57:25;;;;;;;2.20;2.00;;;27.40;46.00;;;;;;6216607;23;20070;-90
2021/08/23 11:59:53;;;;;;;2.33;2.05;;;27.40;45.40;;;;;;6189334;23;20012;-90
2021/08/23 12:02:37;;;;;;;2.75;2.17;;;27.40;45.10;;;;;;6216271;23;20001;-90
2021/08/23 12:05:16;;;;;;;2.50;2.03;;;27.50;45.00;;;;;;6189462;23;20451;-90
2021/08/23 12:07:41;;;;;;;1.92;1.80;;;27.50;44.60;;;;;;6216291;23;20051;-90
2021/08/23 12:10:08;;;;;;;2.35;2.00;;;27.60;44.80;;;;;;6216543;23;20005;-90
2021/08/23 12:12:33;;;;;;;2.00;1.80;;;27.70;44.60;;;;;;6215694;23;20360;-90
2021/08/23 12:14:59;;;;;;;2.92;2.28;;;27.70;44.60;;;;;;6215787;23;20080;-90
2021/08/23 12:17:32;;;;;;;2.30;1.98;;;27.80;44.20;;;;;;6189600;23;20424;-90
2021/08/23 12:20:05;;;;;;;;;;;27.90;44.20;;;;;;6190604;23;20328;-90
2021/08/23 12:22:30;;;;;;;3.28;2.42;;;28.00;43.60;;;;;;6239022;23;19978;-90
2021/08/23 12:24:57;;;;;;;2.42;2.22;;;28.10;44.10;;;;;;6189489;23;20051;-90
2021/08/23 12:27:23;;;;;;;2.22;2.03;;;28.10;43.90;;;;;;6216308;23;19997;-91
2021/08/23 12:29:49;;;;;;;2.92;2.50;;;28.20;43.90;;;;;;6217752;23;20035;-90
2021/08/23 12:32:15;;;;;;;2.08;1.98;;;28.30;43.90;;;;;;6191253;23;20409;-90
2021/08/23 12:34:51;;;;;;;3.03;2.53;;;28.40;43.70;;;;;;6217452;23;20043;-90
2021/08/23 12:37:19;;;;;;;3.33;2.28;;;28.70;43.30;;;;;;6192497;23;20482;-90
2021/08/23 12:39:46;;;;;;;2.72;2.38;;;28.80;43.10;;;;;;6191370;23;20335;-90
2021/08/23 12:42:12;;;;;;;2.85;2.50;;;29.00;43.00;;;;;;6218193;23;20007;-90
2021/08/23 12:44:39;;;;;;;3.33;2.20;;;29.20;43.00;;;;;;6218147;23;19997;-90